createdAt,value
2023-03-02T00:03:01.701Z,21.17
2023-03-02T00:08:05.274Z,15.23
2023-03-02T00:13:06.850Z,23.52
2023-03-02T00:18:08.459Z,22.42
2023-03-02T00:23:11.562Z,21.23
2023-03-02T00:28:13.117Z,18.73
2023-03-02T00:33:14.932Z,17.98
2023-03-02T00:38:17.809Z,18.13
2023-03-02T00:43:19.392Z,16.60
2023-03-02T00:48:20.908Z,19.98
2023-03-02T00:53:23.794Z,21.40
2023-03-02T00:58:25.977Z,15.80
2023-03-02T01:03:27.526Z,18.60
2023-03-02T01:08:30.884Z,17.85
2023-03-02T01:13:32.438Z,19.42
2023-03-02T01:18:34.791Z,21.25
2023-03-02T01:23:37.698Z,18.08
2023-03-02T01:28:39.203Z,20.20
2023-03-02T01:33:40.757Z,17.83
2023-03-02T01:38:43.945Z,18.80
2023-03-02T01:43:45.473Z,20.92
2023-03-02T01:48:50.356Z,21.88
2023-03-02T01:53:56.389Z,19.23
2023-03-02T01:59:00.816Z,23.48
2023-03-02T02:04:02.584Z,23.77
2023-03-02T02:09:07.805Z,20.48
2023-03-02T02:14:09.878Z,21.50
2023-03-02T02:19:23.692Z,15.82
2023-03-02T02:24:33.361Z,20.40
2023-03-02T02:29:41.325Z,16.60
2023-03-02T02:34:47.900Z,20.10
2023-03-02T02:39:50.316Z,16.65
2023-03-02T02:44:56.230Z,19.05
2023-03-02T02:49:58.707Z,20.02
2023-03-02T02:55:00.286Z,19.33
2023-03-02T03:00:03.493Z,21.65
2023-03-02T03:05:05.818Z,21.48
2023-03-02T03:10:14.042Z,21.40
2023-03-02T03:15:17.238Z,21.15
2023-03-02T03:20:20.093Z,20.75
2023-03-02T03:25:25.406Z,21.38
2023-03-02T03:30:28.372Z,16.95
2023-03-02T03:35:29.956Z,20.55
2023-03-02T03:40:31.947Z,20.23
2023-03-02T03:45:34.951Z,21.63
2023-03-02T03:50:36.654Z,22.48
2023-03-02T03:55:38.182Z,18.25
2023-03-02T04:00:41.052Z,22.42
2023-03-02T04:05:42.732Z,22.33
2023-03-02T04:10:44.868Z,17.67
2023-03-02T04:15:47.800Z,19.13
2023-03-02T04:20:49.268Z,22.48
2023-03-02T04:25:50.782Z,18.80
2023-03-02T04:30:53.774Z,23.33
2023-03-02T04:35:55.336Z,19.60
2023-03-02T04:40:57.574Z,25.52
2023-03-02T04:46:00.447Z,26.83
2023-03-02T04:51:02.000Z,30.08
2023-03-02T04:56:04.021Z,30.05
2023-03-02T05:01:06.932Z,25.60
2023-03-02T05:06:08.910Z,29.70
2023-03-02T05:11:12.460Z,30.20
2023-03-02T05:16:15.607Z,27.20
2023-03-02T05:21:18.317Z,28.48
2023-03-02T05:26:19.898Z,27.40
2023-03-02T05:31:27.475Z,27.35
2023-03-02T05:41:30.577Z,22.20
2023-03-02T05:46:33.876Z,23.50
2023-03-02T05:51:35.595Z,29.00
2023-03-02T05:56:37.090Z,24.83
2023-03-02T06:01:40.034Z,22.15
2023-03-02T06:06:41.531Z,17.42
2023-03-02T06:11:43.035Z,24.65
2023-03-02T06:16:45.969Z,25.65
2023-03-02T06:21:47.522Z,27.48
2023-03-02T06:26:49.056Z,24.88
2023-03-02T06:31:52.174Z,27.23
2023-03-02T06:36:53.837Z,28.67
2023-03-02T06:41:55.438Z,31.10
2023-03-02T06:46:58.370Z,31.08
2023-03-02T06:51:59.886Z,26.02
2023-03-02T06:57:01.454Z,28.27
2023-03-02T07:02:04.411Z,27.52
2023-03-02T07:07:05.913Z,26.33
2023-03-02T07:12:07.584Z,20.30
2023-03-02T07:17:10.569Z,22.55
2023-03-02T07:22:12.165Z,24.88
2023-03-02T07:27:13.748Z,26.48
2023-03-02T07:32:16.724Z,23.45
2023-03-02T07:37:18.208Z,25.83
2023-03-02T07:42:19.969Z,19.70
2023-03-02T07:47:22.940Z,17.50
2023-03-02T07:52:24.620Z,24.42
2023-03-02T07:57:26.186Z,25.17
2023-03-02T08:02:29.093Z,24.88
2023-03-02T08:07:30.707Z,24.02
2023-03-02T08:12:32.373Z,27.73
2023-03-02T08:17:35.226Z,25.33
2023-03-02T08:22:36.668Z,27.52
2023-03-02T08:27:38.190Z,15.65
2023-03-02T08:32:41.212Z,29.52
2023-03-02T08:37:42.862Z,24.73
2023-03-02T08:42:44.405Z,26.05
2023-03-02T08:47:47.290Z,24.70
2023-03-02T08:52:48.852Z,26.10
2023-03-02T08:57:50.440Z,28.17
2023-03-02T09:02:53.334Z,28.05
2023-03-02T09:07:55.886Z,27.52
2023-03-02T09:12:57.368Z,26.77
2023-03-02T09:18:00.398Z,25.98
2023-03-02T09:23:01.943Z,23.95
2023-03-02T09:28:03.548Z,28.42
2023-03-02T09:33:06.474Z,23.88
2023-03-02T09:38:08.066Z,23.02
2023-03-02T09:43:22.879Z,25.58
2023-03-02T09:48:38.399Z,29.15
2023-03-02T09:53:47.209Z,27.70
2023-03-02T09:58:55.726Z,29.20
2023-03-02T10:04:08.080Z,29.10
2023-03-02T10:09:10.556Z,27.58
2023-03-02T10:14:17.878Z,25.13
2023-03-02T10:19:25.047Z,24.55
2023-03-02T10:24:35.020Z,22.30
2023-03-02T10:29:47.281Z,21.20
2023-03-02T10:34:52.326Z,22.50
2023-03-02T10:39:54.422Z,17.83
2023-03-02T10:45:00.656Z,20.13
2023-03-02T10:50:03.631Z,21.27
2023-03-02T10:55:12.503Z,22.00
2023-03-02T11:00:18.092Z,22.00
2023-03-02T11:05:32.819Z,22.05
2023-03-02T11:10:36.282Z,21.52
2023-03-02T11:15:45.720Z,20.67
2023-03-02T11:20:52.671Z,20.67
2023-03-02T11:25:57.676Z,20.10
2023-03-02T11:31:02.434Z,21.77
2023-03-02T11:36:12.409Z,22.63
2023-03-02T11:41:24.530Z,22.40
2023-03-02T11:46:28.300Z,21.50
2023-03-02T11:51:35.513Z,20.08
2023-03-02T11:56:39.495Z,18.70
2023-03-02T12:01:42.318Z,19.30
2023-03-02T12:06:45.523Z,19.35
2023-03-02T12:11:55.099Z,18.90
2023-03-02T12:17:17.531Z,21.13
2023-03-02T12:22:30.038Z,17.70
2023-03-02T12:27:36.471Z,20.83
2023-03-02T12:32:38.298Z,19.40
2023-03-02T12:37:47.057Z,20.17
2023-03-02T12:43:12.421Z,19.90
2023-03-02T12:48:26.412Z,20.45
2023-03-02T12:53:29.796Z,19.95
2023-03-02T12:58:31.318Z,20.23
2023-03-02T13:03:33.069Z,19.38
2023-03-02T13:08:36.234Z,19.40
2023-03-02T13:13:40.824Z,19.42
2023-03-02T13:18:42.556Z,20.17
2023-03-02T13:23:47.712Z,20.02
2023-03-02T13:28:59.737Z,19.33
2023-03-02T13:34:01.607Z,20.98
2023-03-02T13:39:07.566Z,22.02
2023-03-02T13:44:18.553Z,21.02
2023-03-02T13:49:28.364Z,22.45
2023-03-02T13:54:34.169Z,22.50
2023-03-02T13:59:35.791Z,22.15
2023-03-02T14:04:37.350Z,23.73
2023-03-02T14:09:40.272Z,22.88
2023-03-02T14:14:43.289Z,22.85
2023-03-02T14:19:45.970Z,21.75
2023-03-02T14:24:49.183Z,22.08
2023-03-02T14:29:50.798Z,23.08
2023-03-02T14:34:52.451Z,23.80
2023-03-02T14:39:55.832Z,23.92
2023-03-02T14:44:58.520Z,22.27
2023-03-02T14:50:01.271Z,21.40
2023-03-02T14:55:07.733Z,21.70
2023-03-02T15:00:14.257Z,21.88
2023-03-02T15:05:15.966Z,21.20
2023-03-02T15:10:21.237Z,22.10
2023-03-02T15:15:22.726Z,22.40
2023-03-02T15:20:24.292Z,22.88
2023-03-02T15:25:27.777Z,22.05
2023-03-02T15:30:29.381Z,21.65
2023-03-02T15:35:31.025Z,21.77
2023-03-02T15:40:35.327Z,21.52
2023-03-02T15:45:37.009Z,22.55
2023-03-02T15:50:38.623Z,22.92
2023-03-02T15:55:41.704Z,26.85
2023-03-02T16:00:43.464Z,24.50
2023-03-02T16:05:45.301Z,24.67
2023-03-02T16:10:56.867Z,25.08
2023-03-02T16:16:00.803Z,25.00
2023-03-02T16:21:02.282Z,24.63
2023-03-02T16:26:09.458Z,25.05
2023-03-02T16:31:13.129Z,25.60
2023-03-02T16:36:14.738Z,23.58
2023-03-02T16:41:19.554Z,24.58
2023-03-02T16:46:22.176Z,25.50
2023-03-02T16:51:23.742Z,27.00
2023-03-02T16:56:26.641Z,27.85
2023-03-02T17:01:28.556Z,25.20
2023-03-02T17:06:30.169Z,23.98
2023-03-02T17:11:33.076Z,24.67
2023-03-02T17:16:34.698Z,25.70
2023-03-02T17:21:36.257Z,26.48
2023-03-02T17:26:39.131Z,24.92
2023-03-02T17:31:40.745Z,25.63
2023-03-02T17:36:42.373Z,26.38
2023-03-02T17:41:45.250Z,31.08
2023-03-02T17:46:46.845Z,25.45
2023-03-02T17:51:48.407Z,29.73
2023-03-02T17:56:51.557Z,31.77
2023-03-02T18:01:53.080Z,33.03
2023-03-02T18:06:54.634Z,34.80
2023-03-02T18:11:57.530Z,43.72
2023-03-02T18:16:59.306Z,37.65
2023-03-02T18:22:01.160Z,37.67
2023-03-02T18:27:04.147Z,37.38
2023-03-02T18:32:05.935Z,36.92
2023-03-02T18:37:07.859Z,37.72
2023-03-02T18:42:12.750Z,37.20
2023-03-02T18:47:16.526Z,38.30
2023-03-02T18:52:18.733Z,38.10
2023-03-02T18:57:21.608Z,38.38
2023-03-02T19:02:23.265Z,39.13
2023-03-02T19:07:24.983Z,38.75
2023-03-02T19:12:27.926Z,37.50
2023-03-02T19:17:29.498Z,42.03
2023-03-02T19:22:31.082Z,40.10
2023-03-02T19:27:34.193Z,38.63
2023-03-02T19:32:37.422Z,38.38
2023-03-02T19:37:38.983Z,37.65
2023-03-02T19:42:41.818Z,40.33
2023-03-02T19:47:43.443Z,39.60
2023-03-02T19:52:45.041Z,38.78
2023-03-02T19:57:48.376Z,39.42
2023-03-02T20:02:49.924Z,38.55
2023-03-02T20:07:52.007Z,39.63
2023-03-02T20:12:55.027Z,39.45
2023-03-02T20:17:57.478Z,39.90
2023-03-02T20:22:59.373Z,42.25
2023-03-02T20:28:03.762Z,42.03
2023-03-02T20:33:06.826Z,42.50
2023-03-02T20:38:10.932Z,42.80
2023-03-02T20:43:14.132Z,40.83
2023-03-02T20:48:15.808Z,39.22
2023-03-02T20:53:18.125Z,40.75
2023-03-02T20:58:21.103Z,41.00
2023-03-02T21:03:22.780Z,41.55
2023-03-02T21:08:24.696Z,43.00
2023-03-02T21:13:27.579Z,41.20
2023-03-02T21:18:29.194Z,51.80
2023-03-02T21:23:30.788Z,42.33
2023-03-02T21:28:33.597Z,42.45
2023-03-02T21:33:35.226Z,44.83
2023-03-02T21:38:36.750Z,45.45
2023-03-02T21:43:39.674Z,45.47
2023-03-02T21:48:41.484Z,43.83
2023-03-02T21:53:43.000Z,43.70
2023-03-02T21:58:46.610Z,44.80
2023-03-02T22:03:48.295Z,49.75
2023-03-02T22:08:50.507Z,44.63
2023-03-02T22:13:55.411Z,45.70
2023-03-02T22:18:58.495Z,45.50
2023-03-02T22:24:20.514Z,47.00
2023-03-02T22:29:25.522Z,46.13
2023-03-02T22:34:30.592Z,51.17
2023-03-02T22:39:33.457Z,52.17
2023-03-02T22:44:36.415Z,47.67
2023-03-02T22:49:37.859Z,47.30
2023-03-02T22:54:39.468Z,47.17
2023-03-02T22:59:42.351Z,45.17
2023-03-02T23:04:48.104Z,47.35
2023-03-02T23:09:49.675Z,46.70
2023-03-02T23:14:54.652Z,44.88
2023-03-02T23:19:56.273Z,46.35
2023-03-02T23:24:57.801Z,46.65
2023-03-02T23:30:00.741Z,46.97
2023-03-02T23:35:02.275Z,45.63
2023-03-02T23:40:04.559Z,46.00
2023-03-02T23:45:09.289Z,46.35
2023-03-02T23:50:12.615Z,46.88
2023-03-02T23:55:14.150Z,46.40
